createdAt,value
2017-07-26T00:00:49.639Z,0
2017-07-26T00:01:49.612Z,0
2017-07-26T00:02:49.604Z,0
2017-07-26T00:03:49.574Z,0
2017-07-26T00:04:49.571Z,0
2017-07-26T00:05:49.543Z,0
2017-07-26T00:06:49.218Z,0
2017-07-26T00:07:49.511Z,0
2017-07-26T00:08:49.497Z,0
2017-07-26T00:09:49.471Z,0
2017-07-26T00:10:49.466Z,0
2017-07-26T00:11:49.447Z,0
2017-07-26T00:12:49.414Z,0
2017-07-26T00:13:49.408Z,0
2017-07-26T00:14:49.395Z,0
2017-07-26T00:15:49.378Z,0
2017-07-26T00:16:49.367Z,0
2017-07-26T00:17:49.346Z,0
2017-07-26T00:18:49.326Z,0
2017-07-26T00:19:49.308Z,0
2017-07-26T00:20:49.294Z,0
2017-07-26T00:21:49.268Z,0
2017-07-26T00:22:49.251Z,0
2017-07-26T00:23:48.934Z,0
2017-07-26T00:24:49.234Z,0
2017-07-26T00:25:49.218Z,0
2017-07-26T00:26:49.186Z,0
2017-07-26T00:27:49.174Z,0
2017-07-26T00:28:49.154Z,0
2017-07-26T00:29:48.844Z,0
2017-07-26T00:30:49.125Z,0
2017-07-26T00:31:49.107Z,0
2017-07-26T00:32:49.101Z,0
2017-07-26T00:33:49.084Z,0
2017-07-26T00:34:48.752Z,0
2017-07-26T00:35:48.738Z,0
2017-07-26T00:36:49.034Z,0
2017-07-26T00:37:48.707Z,0
2017-07-26T00:38:48.984Z,0
2017-07-26T00:39:48.986Z,0
2017-07-26T00:40:48.955Z,0
2017-07-26T00:41:48.938Z,0
2017-07-26T00:42:48.927Z,0
2017-07-26T00:43:48.901Z,0
2017-07-26T00:44:48.888Z,0
2017-07-26T00:45:48.877Z,0
2017-07-26T00:46:48.867Z,0
2017-07-26T00:47:48.840Z,0
2017-07-26T00:48:48.827Z,0
2017-07-26T00:49:48.814Z,0
2017-07-26T00:50:48.780Z,0
2017-07-26T00:51:48.798Z,0
2017-07-26T00:52:48.763Z,0
2017-07-26T00:53:48.736Z,0
2017-07-26T00:54:48.742Z,0
2017-07-26T00:55:48.726Z,0
2017-07-26T00:56:48.693Z,0
2017-07-26T00:57:48.370Z,0
2017-07-26T00:58:48.666Z,0
2017-07-26T00:59:48.642Z,0
2017-07-26T01:00:48.627Z,0
2017-07-26T01:01:48.607Z,0
2017-07-26T01:02:48.602Z,0
2017-07-26T01:03:48.586Z,0
2017-07-26T01:04:48.558Z,0
2017-07-26T01:05:48.563Z,0
2017-07-26T01:06:48.239Z,0
2017-07-26T01:07:48.214Z,0
2017-07-26T01:08:48.495Z,0
2017-07-26T01:09:48.171Z,0
2017-07-26T01:10:48.161Z,0
2017-07-26T01:11:48.442Z,0
2017-07-26T01:12:48.434Z,0
2017-07-26T01:13:48.424Z,0
2017-07-26T01:14:48.431Z,0
2017-07-26T01:15:48.377Z,0
2017-07-26T01:16:48.368Z,0
2017-07-26T01:17:48.354Z,0
2017-07-26T01:18:48.021Z,0
2017-07-26T01:19:48.323Z,0
2017-07-26T01:20:48.297Z,0
2017-07-26T01:21:48.295Z,0
2017-07-26T01:22:48.270Z,0
2017-07-26T01:23:48.261Z,0
2017-07-26T01:24:48.245Z,0
2017-07-26T01:25:48.217Z,0
2017-07-26T01:26:48.207Z,0
2017-07-26T01:27:48.196Z,0
2017-07-26T01:28:48.177Z,0
2017-07-26T01:29:48.160Z,0
2017-07-26T01:30:48.137Z,0
2017-07-26T01:31:47.822Z,0
2017-07-26T01:32:48.110Z,0
2017-07-26T01:33:48.094Z,0
2017-07-26T01:34:47.488Z,0
2017-07-26T01:35:47.763Z,0
2017-07-26T01:36:47.741Z,0
2017-07-26T01:37:48.026Z,0
2017-07-26T01:38:48.023Z,0
2017-07-26T01:39:47.999Z,0
2017-07-26T01:40:53.678Z,0
2017-07-26T01:41:47.958Z,0
2017-07-26T01:42:48.141Z,0
2017-07-26T01:43:47.967Z,0
2017-07-26T01:44:47.900Z,0
2017-07-26T01:45:47.890Z,0
2017-07-26T01:46:47.872Z,0
2017-07-26T01:47:47.869Z,0
2017-07-26T01:48:47.825Z,0
2017-07-26T01:49:47.818Z,0
2017-07-26T01:50:47.815Z,0
2017-07-26T01:51:47.800Z,0
2017-07-26T01:52:47.463Z,0
2017-07-26T01:53:47.765Z,0
2017-07-26T01:54:47.733Z,0
2017-07-26T01:55:47.726Z,0
2017-07-26T01:56:47.405Z,0
2017-07-26T01:57:47.689Z,0
2017-07-26T01:58:47.683Z,0
2017-07-26T01:59:47.664Z,0
2017-07-26T02:00:47.630Z,0
2017-07-26T02:01:47.622Z,0
2017-07-26T02:02:47.605Z,0
2017-07-26T02:03:47.589Z,0
2017-07-26T02:04:47.592Z,0
2017-07-26T02:05:47.557Z,0
2017-07-26T02:06:47.536Z,0
2017-07-26T02:07:47.516Z,0
2017-07-26T02:08:47.516Z,0
2017-07-26T02:09:47.504Z,0
2017-07-26T02:10:47.471Z,0
2017-07-26T02:11:47.464Z,0
2017-07-26T02:12:47.438Z,0
2017-07-26T02:13:47.119Z,0
2017-07-26T02:14:47.395Z,0
2017-07-26T02:15:47.394Z,0
2017-07-26T02:16:47.385Z,0
2017-07-26T02:17:47.572Z,0
2017-07-26T02:18:47.038Z,0
2017-07-26T02:19:47.325Z,0
2017-07-26T02:20:47.001Z,0
2017-07-26T02:21:47.505Z,0
2017-07-26T02:22:47.272Z,0
2017-07-26T02:23:47.252Z,0
2017-07-26T02:24:47.229Z,0
2017-07-26T02:25:47.217Z,0
2017-07-26T02:26:47.194Z,0
2017-07-26T02:27:47.189Z,0
2017-07-26T02:28:47.171Z,0
2017-07-26T02:29:47.164Z,0
2017-07-26T02:30:47.133Z,0
2017-07-26T02:31:47.117Z,0
2017-07-26T02:32:46.795Z,0
2017-07-26T02:33:47.074Z,0
2017-07-26T02:34:47.062Z,0
2017-07-26T02:35:47.073Z,0
2017-07-26T02:36:46.742Z,0
2017-07-26T02:37:46.723Z,0
2017-07-26T02:38:46.998Z,0
2017-07-26T02:39:46.992Z,0
2017-07-26T02:40:46.976Z,0
2017-07-26T02:41:46.972Z,0
2017-07-26T02:42:46.922Z,0
2017-07-26T02:43:46.917Z,0
2017-07-26T02:44:46.899Z,0
2017-07-26T02:45:46.895Z,0
2017-07-26T02:46:46.859Z,0
2017-07-26T02:47:46.841Z,0
2017-07-26T02:48:46.832Z,0
2017-07-26T02:49:46.810Z,0
2017-07-26T02:50:46.789Z,0
2017-07-26T02:51:46.780Z,0
2017-07-26T02:52:46.764Z,0
2017-07-26T02:53:46.753Z,0
2017-07-26T02:54:46.421Z,0
2017-07-26T02:55:46.703Z,0
2017-07-26T02:56:46.897Z,0
2017-07-26T02:57:46.686Z,0
2017-07-26T02:58:46.658Z,0
2017-07-26T02:59:46.644Z,0
2017-07-26T03:00:46.630Z,0
2017-07-26T03:01:46.604Z,0
2017-07-26T03:02:46.585Z,0
2017-07-26T03:03:46.576Z,0
2017-07-26T03:04:46.572Z,0
2017-07-26T03:05:46.536Z,0
2017-07-26T03:06:46.522Z,0
2017-07-26T03:07:46.505Z,0
2017-07-26T03:08:50.332Z,0
2017-07-26T03:09:46.467Z,0
2017-07-26T03:10:46.463Z,0
2017-07-26T03:11:46.452Z,0
2017-07-26T03:12:46.413Z,0
2017-07-26T03:13:48.202Z,0
2017-07-26T03:14:46.077Z,4
2017-07-26T03:15:46.377Z,4
2017-07-26T03:16:46.350Z,0
2017-07-26T03:17:46.327Z,4
2017-07-26T03:18:46.315Z,4
2017-07-26T03:19:46.293Z,4
2017-07-26T03:20:46.280Z,8
2017-07-26T03:21:46.257Z,4
2017-07-26T03:22:46.250Z,8
2017-07-26T03:23:46.232Z,8
2017-07-26T03:24:46.204Z,12
2017-07-26T03:25:46.178Z,16
2017-07-26T03:26:46.171Z,20
2017-07-26T03:27:46.165Z,24
2017-07-26T03:28:46.133Z,28
2017-07-26T03:29:59.756Z,32
2017-07-26T03:30:45.810Z,36
2017-07-26T03:31:46.097Z,36
2017-07-26T03:32:45.768Z,44
2017-07-26T03:33:46.256Z,48
2017-07-26T03:34:46.028Z,52
2017-07-26T03:35:46.009Z,64
2017-07-26T03:36:46.005Z,72
2017-07-26T03:37:45.988Z,80
2017-07-26T03:38:45.973Z,88
2017-07-26T03:39:45.958Z,96
2017-07-26T03:40:45.920Z,104
2017-07-26T03:41:45.916Z,112
2017-07-26T03:42:45.901Z,124
2017-07-26T03:43:45.868Z,132
2017-07-26T03:44:45.866Z,140
2017-07-26T03:45:45.837Z,156
2017-07-26T03:46:45.837Z,172
2017-07-26T03:47:45.806Z,196
2017-07-26T03:48:45.790Z,224
2017-07-26T03:49:45.782Z,248
2017-07-26T03:50:45.769Z,276
2017-07-26T03:51:45.732Z,304
2017-07-26T03:52:45.714Z,316
2017-07-26T03:53:45.695Z,328
2017-07-26T03:54:45.690Z,340
2017-07-26T03:55:45.659Z,360
2017-07-26T03:56:45.345Z,392
2017-07-26T03:57:45.617Z,420
2017-07-26T03:58:59.517Z,484
2017-07-26T03:59:45.608Z,504
2017-07-26T04:00:45.588Z,548
2017-07-26T04:01:45.566Z,592
2017-07-26T04:03:00.152Z,628
2017-07-26T04:03:45.730Z,640
2017-07-26T04:04:45.506Z,656
2017-07-26T04:05:45.498Z,644
2017-07-26T04:06:45.894Z,648
2017-07-26T04:07:45.656Z,648
2017-07-26T04:08:45.445Z,632
2017-07-26T04:09:45.429Z,640
2017-07-26T04:10:45.413Z,664
2017-07-26T04:11:45.378Z,684
2017-07-26T04:12:45.368Z,680
2017-07-26T04:13:45.352Z,688
2017-07-26T04:14:45.329Z,740
2017-07-26T04:15:45.314Z,764
2017-07-26T04:16:44.984Z,772
2017-07-26T04:17:45.279Z,828
2017-07-26T04:18:44.970Z,916
2017-07-26T04:19:45.243Z,1032
2017-07-26T04:20:45.221Z,1128
2017-07-26T04:21:45.223Z,1220
2017-07-26T04:22:45.205Z,1300
2017-07-26T04:23:45.164Z,1340
2017-07-26T04:24:45.156Z,1304
2017-07-26T04:25:45.133Z,1284
2017-07-26T04:26:45.118Z,1300
2017-07-26T04:27:45.109Z,1336
2017-07-26T04:28:45.072Z,1344
2017-07-26T04:29:45.074Z,1356
2017-07-26T04:30:45.053Z,1308
2017-07-26T04:31:45.239Z,1328
2017-07-26T04:32:45.012Z,1276
2017-07-26T04:33:44.993Z,1224
2017-07-26T04:34:44.687Z,1164
2017-07-26T04:35:44.956Z,1152
2017-07-26T04:36:58.831Z,1184
2017-07-26T04:37:44.919Z,1216
2017-07-26T04:38:44.596Z,1300
2017-07-26T04:39:44.900Z,1428
2017-07-26T04:40:44.879Z,1520
2017-07-26T04:41:44.844Z,1628
2017-07-26T04:42:44.525Z,1772
2017-07-26T04:43:44.828Z,1904
2017-07-26T04:44:44.798Z,1988
2017-07-26T04:45:44.787Z,2064
2017-07-26T04:46:44.760Z,2216
2017-07-26T04:47:44.768Z,2312
2017-07-26T04:48:44.729Z,2276
2017-07-26T04:49:44.709Z,2196
2017-07-26T04:50:44.701Z,2120
2017-07-26T04:51:44.669Z,2008
2017-07-26T04:52:44.679Z,2004
2017-07-26T04:53:44.641Z,1964
2017-07-26T04:54:44.618Z,1972
2017-07-26T04:55:44.604Z,1956
2017-07-26T04:56:44.288Z,2004
2017-07-26T04:57:44.576Z,2088
2017-07-26T04:58:44.252Z,2292
2017-07-26T04:59:44.539Z,2700
2017-07-26T05:00:44.505Z,3212
2017-07-26T05:01:44.495Z,3748
2017-07-26T05:02:44.486Z,4600
2017-07-26T05:03:44.459Z,5292
2017-07-26T05:04:44.441Z,5624
2017-07-26T05:05:44.416Z,5256
2017-07-26T05:06:44.407Z,4936
2017-07-26T05:07:44.406Z,4632
2017-07-26T05:08:44.362Z,4736
2017-07-26T05:09:44.564Z,4764
2017-07-26T05:10:44.336Z,4920
2017-07-26T05:11:44.315Z,4864
2017-07-26T05:12:44.298Z,4708
2017-07-26T05:13:44.276Z,4820
2017-07-26T05:14:44.259Z,5396
2017-07-26T05:15:44.249Z,6172
2017-07-26T05:16:44.234Z,6692
2017-07-26T05:17:44.207Z,7344
2017-07-26T05:18:43.878Z,7912
2017-07-26T05:19:44.172Z,8092
2017-07-26T05:20:44.151Z,8180
2017-07-26T05:21:44.157Z,8540
2017-07-26T05:22:44.122Z,8524
2017-07-26T05:23:44.114Z,8020
2017-07-26T05:24:44.081Z,7756
2017-07-26T05:25:44.067Z,7560
2017-07-26T05:26:44.045Z,7520
2017-07-26T05:27:44.022Z,7568
2017-07-26T05:28:44.010Z,7244
2017-07-26T05:29:43.997Z,6864
2017-07-26T05:30:43.664Z,6568
2017-07-26T05:31:43.966Z,6344
2017-07-26T05:32:43.641Z,7064
2017-07-26T05:33:43.922Z,8784
2017-07-26T05:34:43.909Z,10724
2017-07-26T05:35:43.579Z,11112
2017-07-26T05:36:43.556Z,9916
2017-07-26T05:37:43.841Z,7672
2017-07-26T05:38:43.837Z,5748
2017-07-26T05:39:43.801Z,4744
2017-07-26T05:40:43.494Z,4524
2017-07-26T05:41:43.793Z,4604
2017-07-26T05:42:43.466Z,4488
2017-07-26T05:43:43.749Z,4632
2017-07-26T05:44:43.728Z,5200
2017-07-26T05:45:43.716Z,5784
2017-07-26T05:46:43.690Z,6532
2017-07-26T05:47:43.674Z,7512
2017-07-26T05:48:43.659Z,8288
2017-07-26T05:49:43.632Z,9068
2017-07-26T05:50:43.612Z,9744
2017-07-26T05:51:43.599Z,10316
2017-07-26T05:52:43.588Z,11112
2017-07-26T05:53:43.574Z,11152
2017-07-26T05:54:43.546Z,10836
2017-07-26T05:55:43.526Z,10752
2017-07-26T05:56:43.498Z,10824
2017-07-26T05:57:43.490Z,11296
2017-07-26T05:58:43.468Z,12224
2017-07-26T05:59:43.464Z,12660
2017-07-26T06:00:43.441Z,13700
2017-07-26T06:01:43.410Z,15444
2017-07-26T06:02:43.099Z,16700
2017-07-26T06:03:43.376Z,17312
2017-07-26T06:04:43.365Z,17048
2017-07-26T06:05:43.346Z,15928
2017-07-26T06:06:43.327Z,14612
2017-07-26T06:07:43.001Z,13504
2017-07-26T06:08:43.293Z,13228
2017-07-26T06:09:43.269Z,12680
2017-07-26T06:10:43.247Z,12076
2017-07-26T06:11:43.235Z,12032
2017-07-26T06:12:43.223Z,11920
2017-07-26T06:13:43.195Z,11640
2017-07-26T06:14:43.180Z,11828
2017-07-26T06:15:43.170Z,12300
2017-07-26T06:16:43.139Z,13024
2017-07-26T06:17:43.124Z,14024
2017-07-26T06:18:43.137Z,14484
2017-07-26T06:19:43.113Z,15088
2017-07-26T06:20:43.084Z,15528
2017-07-26T06:21:43.091Z,15732
2017-07-26T06:22:43.029Z,15172
2017-07-26T06:23:43.050Z,14924
2017-07-26T06:24:43.000Z,15496
2017-07-26T06:25:42.689Z,15656
2017-07-26T06:26:42.671Z,15732
2017-07-26T06:27:42.945Z,16096
2017-07-26T06:28:42.630Z,15948
2017-07-26T06:29:42.928Z,15532
2017-07-26T06:30:42.888Z,15320
2017-07-26T06:31:42.879Z,15220
2017-07-26T06:32:42.867Z,15168
2017-07-26T06:33:42.843Z,15264
2017-07-26T06:34:42.523Z,15096
2017-07-26T06:35:42.806Z,14532
2017-07-26T06:36:42.491Z,13812
2017-07-26T06:37:42.464Z,13216
2017-07-26T06:38:42.744Z,12764
2017-07-26T06:39:42.423Z,12508
2017-07-26T06:40:42.706Z,12064
2017-07-26T06:41:42.699Z,11868
2017-07-26T06:42:42.686Z,11520
2017-07-26T06:43:42.659Z,11100
2017-07-26T06:44:42.337Z,11044
2017-07-26T06:45:42.321Z,11292
2017-07-26T06:46:42.307Z,11380
2017-07-26T06:47:42.589Z,11800
2017-07-26T06:48:42.579Z,12024
2017-07-26T06:49:42.563Z,12184
2017-07-26T06:50:42.538Z,12688
2017-07-26T06:51:42.519Z,13072
2017-07-26T06:52:42.489Z,13300
2017-07-26T06:53:42.174Z,13416
2017-07-26T06:54:42.151Z,13324
2017-07-26T06:55:42.485Z,13368
2017-07-26T06:56:42.426Z,13060
2017-07-26T06:57:42.403Z,12420
2017-07-26T06:58:42.390Z,12600
2017-07-26T06:59:42.354Z,13080
2017-07-26T07:00:42.350Z,12572
2017-07-26T07:01:42.328Z,12536
2017-07-26T07:02:42.312Z,12832
2017-07-26T07:03:41.986Z,13096
2017-07-26T07:04:41.968Z,13400
2017-07-26T07:05:42.248Z,13168
2017-07-26T07:06:41.937Z,12856
2017-07-26T07:07:41.918Z,12356
2017-07-26T07:08:42.221Z,12080
2017-07-26T07:09:41.893Z,11924
2017-07-26T07:10:42.174Z,11660
2017-07-26T07:11:42.161Z,11448
2017-07-26T07:12:42.146Z,11692
2017-07-26T07:13:42.114Z,11980
2017-07-26T07:14:41.796Z,12256
2017-07-26T07:15:42.075Z,12016
2017-07-26T07:16:41.450Z,12816
2017-07-26T07:17:41.749Z,13636
2017-07-26T07:18:41.715Z,14564
2017-07-26T07:19:42.011Z,15348
2017-07-26T07:20:41.985Z,15900
2017-07-26T07:21:41.969Z,16516
2017-07-26T07:22:41.962Z,16856
2017-07-26T07:23:41.631Z,17140
2017-07-26T07:24:41.930Z,17232
2017-07-26T07:25:41.906Z,17440
2017-07-26T07:26:41.595Z,17432
2017-07-26T07:27:41.262Z,17320
2017-07-26T07:28:41.844Z,17400
2017-07-26T07:29:41.841Z,17828
2017-07-26T07:30:41.826Z,18504
2017-07-26T07:31:41.803Z,19648
2017-07-26T07:32:41.783Z,19552
2017-07-26T07:33:41.769Z,18524
2017-07-26T07:34:41.741Z,18212
2017-07-26T07:35:41.716Z,17676
2017-07-26T07:36:41.723Z,17372
2017-07-26T07:37:41.690Z,16928
2017-07-26T07:38:41.667Z,16636
2017-07-26T07:39:41.662Z,16028
2017-07-26T07:40:41.635Z,15768
2017-07-26T07:41:41.617Z,15748
2017-07-26T07:42:41.606Z,15308
2017-07-26T07:43:41.589Z,14668
2017-07-26T07:44:41.573Z,14676
2017-07-26T07:45:41.552Z,14892
2017-07-26T07:46:41.544Z,14784
2017-07-26T07:47:41.536Z,15068
2017-07-26T07:48:41.500Z,15188
2017-07-26T07:49:41.491Z,15344
2017-07-26T07:50:41.470Z,15068
2017-07-26T07:51:41.146Z,14976
2017-07-26T07:52:41.436Z,15020
2017-07-26T07:53:41.434Z,15440
2017-07-26T07:54:41.401Z,15840
2017-07-26T07:55:41.434Z,16460
2017-07-26T07:56:41.364Z,17280
2017-07-26T07:57:41.338Z,18912
2017-07-26T07:58:41.028Z,19840
2017-07-26T07:59:41.311Z,20384
2017-07-26T08:00:40.986Z,21056
2017-07-26T08:01:40.981Z,21408
2017-07-26T08:02:40.969Z,20672
2017-07-26T08:03:41.256Z,19360
2017-07-26T08:04:40.935Z,18664
2017-07-26T08:05:41.224Z,18188
2017-07-26T08:06:41.181Z,18172
2017-07-26T08:07:40.886Z,17880
2017-07-26T08:08:41.159Z,17956
2017-07-26T08:09:41.143Z,18656
2017-07-26T08:10:41.134Z,18896
2017-07-26T08:11:41.112Z,18804
2017-07-26T08:12:41.093Z,18488
2017-07-26T08:13:41.076Z,18304
2017-07-26T08:14:41.055Z,18324
2017-07-26T08:15:41.055Z,18992
2017-07-26T08:16:41.031Z,20896
2017-07-26T08:17:41.019Z,22912
2017-07-26T08:18:41.011Z,23680
2017-07-26T08:19:40.975Z,24608
2017-07-26T08:20:40.507Z,24864
2017-07-26T08:21:40.484Z,24320
2017-07-26T08:22:40.475Z,23200
2017-07-26T08:23:40.454Z,22816
2017-07-26T08:24:40.438Z,23360
2017-07-26T08:25:40.420Z,23424
2017-07-26T08:26:40.411Z,24480
2017-07-26T08:27:40.089Z,25216
2017-07-26T08:28:40.375Z,27232
2017-07-26T08:29:40.359Z,28416
2017-07-26T08:30:40.350Z,29216
2017-07-26T08:31:40.320Z,29568
2017-07-26T08:32:40.313Z,30464
2017-07-26T08:33:40.277Z,30240
2017-07-26T08:34:40.301Z,29024
2017-07-26T08:35:39.957Z,28000
2017-07-26T08:36:40.235Z,27904
2017-07-26T08:37:40.238Z,28000
2017-07-26T08:38:40.200Z,28000
2017-07-26T08:39:40.184Z,29856
2017-07-26T08:40:40.165Z,30592
2017-07-26T08:41:40.147Z,31104
2017-07-26T08:42:40.137Z,32576
2017-07-26T08:43:40.141Z,33792
2017-07-26T08:44:40.563Z,35072
2017-07-26T08:45:40.092Z,34816
2017-07-26T08:46:40.536Z,34464
2017-07-26T08:47:40.510Z,35744
2017-07-26T08:48:40.037Z,35072
2017-07-26T08:49:40.035Z,34240
2017-07-26T08:50:40.481Z,31840
2017-07-26T08:51:40.460Z,30432
2017-07-26T08:52:40.446Z,29664
2017-07-26T08:53:39.966Z,29728
2017-07-26T08:54:39.941Z,28672
2017-07-26T08:55:40.400Z,28512
2017-07-26T08:56:40.356Z,27872
2017-07-26T08:57:40.346Z,27936
2017-07-26T08:58:40.339Z,28704
2017-07-26T08:59:40.309Z,29824
2017-07-26T09:00:40.299Z,30976
2017-07-26T09:01:40.288Z,33472
2017-07-26T09:02:40.276Z,32800
2017-07-26T09:03:40.242Z,32960
2017-07-26T09:04:40.232Z,34464
2017-07-26T09:05:40.219Z,33056
2017-07-26T09:06:40.216Z,31776
2017-07-26T09:07:40.176Z,32000
2017-07-26T09:08:40.176Z,32416
2017-07-26T09:09:40.159Z,33728
2017-07-26T09:10:40.144Z,34464
2017-07-26T09:11:39.670Z,35488
2017-07-26T09:12:40.114Z,35616
2017-07-26T09:13:40.104Z,35648
2017-07-26T09:14:40.074Z,34176
2017-07-26T09:15:40.057Z,33120
2017-07-26T09:16:40.051Z,32704
2017-07-26T09:17:40.022Z,33760
2017-07-26T09:18:40.014Z,35520
2017-07-26T09:19:40.000Z,36192
2017-07-26T09:20:39.983Z,34944
2017-07-26T09:21:39.962Z,34112
2017-07-26T09:22:39.945Z,34464
2017-07-26T09:23:39.947Z,35680
2017-07-26T09:24:39.918Z,37184
2017-07-26T09:25:39.442Z,36992
2017-07-26T09:26:39.425Z,35584
2017-07-26T09:27:39.876Z,34400
2017-07-26T09:28:39.871Z,34848
2017-07-26T09:29:39.534Z,35200
2017-07-26T09:30:39.825Z,36512
2017-07-26T09:31:39.806Z,36384
2017-07-26T09:32:39.787Z,37632
2017-07-26T09:33:39.782Z,37088
2017-07-26T09:34:39.761Z,35264
2017-07-26T09:35:39.737Z,34848
2017-07-26T09:36:39.732Z,34720
2017-07-26T09:37:39.413Z,34432
2017-07-26T09:38:39.686Z,34144
2017-07-26T09:39:39.677Z,32608
2017-07-26T09:40:39.653Z,33440
2017-07-26T09:41:39.640Z,33472
2017-07-26T09:42:39.630Z,32832
2017-07-26T09:43:39.305Z,33024
2017-07-26T09:44:39.285Z,31520
2017-07-26T09:45:39.592Z,31808
2017-07-26T09:46:39.273Z,32768
2017-07-26T09:47:39.539Z,33696
2017-07-26T09:48:39.531Z,33824
2017-07-26T09:49:39.212Z,35584
2017-07-26T09:50:39.502Z,34784
2017-07-26T09:51:39.485Z,37248
2017-07-26T09:52:39.153Z,37888
2017-07-26T09:53:39.151Z,36992
2017-07-26T09:54:39.423Z,35680
2017-07-26T09:55:39.415Z,35424
2017-07-26T09:56:39.386Z,35584
2017-07-26T09:57:39.381Z,35904
2017-07-26T09:58:39.362Z,36224
2017-07-26T09:59:39.346Z,35904
2017-07-26T10:00:39.343Z,34816
2017-07-26T10:01:39.313Z,34720
2017-07-26T10:02:39.298Z,35936
2017-07-26T10:03:39.287Z,37952
2017-07-26T10:04:39.263Z,40736
2017-07-26T10:05:39.239Z,39648
2017-07-26T10:06:39.234Z,37408
2017-07-26T10:07:39.211Z,36224
2017-07-26T10:08:39.203Z,34816
2017-07-26T10:09:39.184Z,35680
2017-07-26T10:10:39.164Z,36032
2017-07-26T10:11:39.141Z,36128
2017-07-26T10:12:39.132Z,36384
2017-07-26T10:13:39.109Z,36352
2017-07-26T10:14:39.087Z,36448
2017-07-26T10:15:39.083Z,35680
2017-07-26T10:16:39.072Z,34240
2017-07-26T10:17:39.044Z,32736
2017-07-26T10:18:39.034Z,32448
2017-07-26T10:19:39.018Z,35008
2017-07-26T10:20:39.003Z,36640
2017-07-26T10:21:38.688Z,37504
2017-07-26T10:22:38.975Z,37088
2017-07-26T10:23:38.943Z,36160
2017-07-26T10:24:38.941Z,36288
2017-07-26T10:25:38.937Z,37184
2017-07-26T10:26:38.607Z,37856
2017-07-26T10:27:38.902Z,37824
2017-07-26T10:28:38.873Z,37408
2017-07-26T10:29:38.859Z,36928
2017-07-26T10:30:38.862Z,35904
2017-07-26T10:31:38.823Z,35264
2017-07-26T10:32:38.817Z,34656
2017-07-26T10:33:38.794Z,35104
2017-07-26T10:34:38.782Z,36704
2017-07-26T10:35:38.759Z,39008
2017-07-26T10:36:38.739Z,39648
2017-07-26T10:37:38.734Z,40736
2017-07-26T10:38:38.724Z,41856
2017-07-26T10:39:38.710Z,41952
2017-07-26T10:40:38.383Z,41088
2017-07-26T10:41:38.673Z,40192
2017-07-26T10:42:38.650Z,40416
2017-07-26T10:43:38.634Z,41920
2017-07-26T10:44:38.635Z,44896
2017-07-26T10:45:38.614Z,44256
2017-07-26T10:46:38.611Z,43424
2017-07-26T10:47:38.579Z,42112
2017-07-26T10:48:38.568Z,40352
2017-07-26T10:49:38.238Z,37472
2017-07-26T10:50:38.524Z,35776
2017-07-26T10:51:38.513Z,36256
2017-07-26T10:52:38.510Z,37856
2017-07-26T10:53:38.171Z,40384
2017-07-26T10:54:38.165Z,41600
2017-07-26T10:55:38.146Z,42592
2017-07-26T10:56:38.444Z,43456
2017-07-26T10:57:38.420Z,45856
2017-07-26T10:58:38.415Z,47776
2017-07-26T10:59:38.394Z,48224
2017-07-26T11:00:38.381Z,47616
2017-07-26T11:01:38.370Z,46912
2017-07-26T11:02:38.361Z,44736
2017-07-26T11:03:38.331Z,42176
2017-07-26T11:04:38.326Z,41504
2017-07-26T11:05:38.313Z,42016
2017-07-26T11:06:38.283Z,42624
2017-07-26T11:07:38.274Z,42848
2017-07-26T11:08:38.243Z,44384
2017-07-26T11:09:38.235Z,46560
2017-07-26T11:10:38.225Z,47136
2017-07-26T11:11:38.202Z,46240
2017-07-26T11:12:38.193Z,45120
2017-07-26T11:13:38.180Z,44448
2017-07-26T11:14:38.166Z,43360
2017-07-26T11:15:38.148Z,42528
2017-07-26T11:16:38.123Z,43712
2017-07-26T11:17:38.106Z,45600
2017-07-26T11:18:38.104Z,46400
2017-07-26T11:19:38.085Z,46560
2017-07-26T11:20:38.078Z,47040
2017-07-26T11:21:38.072Z,46208
2017-07-26T11:22:38.045Z,44352
2017-07-26T11:23:38.033Z,42880
2017-07-26T11:24:38.017Z,42464
2017-07-26T11:25:37.988Z,41216
2017-07-26T11:26:37.986Z,40384
2017-07-26T11:27:37.967Z,39520
2017-07-26T11:28:37.950Z,40384
2017-07-26T11:29:37.940Z,40192
2017-07-26T11:30:37.617Z,40736
2017-07-26T11:31:37.622Z,40576
2017-07-26T11:32:37.599Z,41056
2017-07-26T11:33:37.576Z,41280
2017-07-26T11:34:37.872Z,41216
2017-07-26T11:35:37.859Z,40832
2017-07-26T11:36:37.832Z,42816
2017-07-26T11:37:37.816Z,44224
2017-07-26T11:38:37.802Z,43168
2017-07-26T11:39:37.796Z,40288
2017-07-26T11:40:37.776Z,36224
2017-07-26T11:41:37.760Z,34400
2017-07-26T11:42:37.739Z,33472
2017-07-26T11:43:37.741Z,35360
2017-07-26T11:44:37.424Z,34528
2017-07-26T11:45:37.710Z,33856
2017-07-26T11:46:37.695Z,32256
2017-07-26T11:47:37.695Z,30784
2017-07-26T11:48:37.645Z,31488
2017-07-26T11:49:37.643Z,33376
2017-07-26T11:50:37.623Z,34304
2017-07-26T11:51:37.617Z,33344
2017-07-26T11:52:37.605Z,31968
2017-07-26T11:53:37.287Z,33408
2017-07-26T11:54:36.975Z,34592
2017-07-26T11:55:37.258Z,33056
2017-07-26T11:56:37.561Z,33088
2017-07-26T11:57:37.208Z,32032
2017-07-26T11:58:37.507Z,31840
2017-07-26T11:59:37.484Z,34272
2017-07-26T12:00:37.471Z,35456
2017-07-26T12:01:37.459Z,34976
2017-07-26T12:02:37.439Z,35616
2017-07-26T12:03:37.438Z,35136
2017-07-26T12:04:37.120Z,34624
2017-07-26T12:05:37.414Z,35008
2017-07-26T12:06:38.807Z,35424
2017-07-26T12:07:37.377Z,34528
2017-07-26T12:08:37.080Z,33888
2017-07-26T12:09:37.046Z,34784
2017-07-26T12:10:37.324Z,34528
2017-07-26T12:11:37.305Z,33792
2017-07-26T12:12:37.005Z,33728
2017-07-26T12:13:36.980Z,33152
2017-07-26T12:14:36.973Z,34048
2017-07-26T12:15:36.945Z,36640
2017-07-26T12:16:36.932Z,37152
2017-07-26T12:17:37.216Z,37216
2017-07-26T12:18:37.217Z,36544
2017-07-26T12:19:36.902Z,36928
2017-07-26T12:20:36.894Z,35584
2017-07-26T12:21:37.156Z,35232
2017-07-26T12:22:37.153Z,34368
2017-07-26T12:23:37.146Z,33248
2017-07-26T12:24:36.815Z,31936
2017-07-26T12:25:37.099Z,31264
2017-07-26T12:26:37.081Z,31232
2017-07-26T12:27:37.070Z,31168
2017-07-26T12:28:37.068Z,31680
2017-07-26T12:29:36.747Z,31712
2017-07-26T12:30:37.042Z,31008
2017-07-26T12:31:37.019Z,29952
2017-07-26T12:32:37.200Z,28800
2017-07-26T12:33:36.669Z,29056
2017-07-26T12:34:36.676Z,28160
2017-07-26T12:35:36.647Z,28064
2017-07-26T12:36:36.637Z,28256
2017-07-26T12:37:36.629Z,27808
2017-07-26T12:38:36.609Z,28224
2017-07-26T12:39:36.891Z,27776
2017-07-26T12:40:36.881Z,28064
2017-07-26T12:41:36.865Z,28512
2017-07-26T12:42:36.851Z,29824
2017-07-26T12:43:36.848Z,30496
2017-07-26T12:44:36.830Z,30688
2017-07-26T12:45:36.509Z,30880
2017-07-26T12:46:36.784Z,30688
2017-07-26T12:47:36.479Z,30624
2017-07-26T12:48:36.756Z,30080
2017-07-26T12:49:36.737Z,30016
2017-07-26T12:50:36.717Z,29824
2017-07-26T12:51:36.726Z,30272
2017-07-26T12:52:36.690Z,31424
2017-07-26T12:53:36.375Z,31808
2017-07-26T12:54:36.677Z,31488
2017-07-26T12:55:36.647Z,31424
2017-07-26T12:56:36.634Z,31616
2017-07-26T12:57:36.619Z,31296
2017-07-26T12:58:36.604Z,30464
2017-07-26T12:59:36.602Z,28576
2017-07-26T13:00:36.271Z,26656
2017-07-26T13:01:36.579Z,25600
2017-07-26T13:02:36.543Z,25696
2017-07-26T13:03:36.535Z,25920
2017-07-26T13:04:36.515Z,25184
2017-07-26T13:05:36.501Z,24352
2017-07-26T13:06:36.199Z,24832
2017-07-26T13:07:36.153Z,24704
2017-07-26T13:08:36.457Z,24192
2017-07-26T13:09:36.124Z,24352
2017-07-26T13:10:36.427Z,25120
2017-07-26T13:11:36.400Z,26432
2017-07-26T13:12:36.085Z,27872
2017-07-26T13:13:36.368Z,29504
2017-07-26T13:14:36.369Z,29152
2017-07-26T13:15:36.346Z,28192
2017-07-26T13:16:36.324Z,27648
2017-07-26T13:17:36.310Z,27904
2017-07-26T13:18:36.001Z,28864
2017-07-26T13:19:36.291Z,29440
2017-07-26T13:20:36.266Z,28928
2017-07-26T13:21:36.246Z,28192
2017-07-26T13:22:35.922Z,28128
2017-07-26T13:23:36.217Z,28288
2017-07-26T13:24:36.199Z,28768
2017-07-26T13:25:36.189Z,29344